Snohomish, WA (98290)

7:08 AM PDT on October 23, 2014 (GMT -0700)
Meadow Ridge, Snohomish, WA. | Change Station
CLOSE
Current Station
Personal Weather Station
Location: Snohomish, WA
Elevation: 623 ft
Nearby Weather Stations

Elev 623 ft 47.92 °N, 121.98 °W | Updated 6 minutes ago

Rain
Rain
49.8 °F
Feels Like 47 °F
N
7.0
Wind Variable Wind from SSE
Gusts 10.0 mph

Today
High -- | Low -- °F
--% Chance of Precip.
Yesterday
High -- | Low -- °F
Precip. -- in
7:39 AM 6:04 PM
Waning Crescent, 0% visible
Pressure 29.73 in
Visibility 10.0 miles
Clouds Scattered Clouds 1900 ft
Scattered Clouds 5500 ft
Overcast 8000 ft
Windchill 47 °F
Dew Point 49 °F
Humidity 96%
Rainfall 0.02 in
Snow Depth 0 in
UV 0 out of 12
Pollen .40 out of 12
PM2.5 Good
Flu Activity Sporadic
METAR KPAE 231353Z 17014KT 10SM -RA SCT019 SCT055 OVC080 11/08 A2972 RMK AO2 RAB19 SLP065 P0000 T01110083

More Conditions Fewer Conditions

Pressure 29.73 in
Visibility 10.0 miles
Clouds Scattered Clouds 1900 ft
Scattered Clouds 5500 ft
Overcast 8000 ft
Windchill 47 °F
Dew Point 49 °F
Humidity 96%
Rainfall 0.02 in
Snow Depth 0 in
UV 0 out of 12
Pollen .40 out of 12
PM2.5 Good
Flu Activity Sporadic
METAR KPAE 231353Z 17014KT 10SM -RA SCT019 SCT055 OVC080 11/08 A2972 RMK AO2 RAB19 SLP065 P0000 T01110083

More Conditions Fewer Conditions

10-Day Weather Forecast

Almanac

Astronomy

Oct. 23, 2014 Rise Set
Actual Time 7:39 AM PDT 6:04 PM PDT
Civil Twilight 7:07 AM PDT 6:36 PM PDT
Nautical Twilight 6:31 AM PDT 7:12 PM PDT
Astronomical Twilight 5:55 AM PDT 7:48 PM PDT
Moon 7:23 AM PDT 6:09 PM PDT
Length of Visible Light 11h 28m
Length of Day
10h 25m
Tomorrow will be 3m 15s shorter.
Waning Crescent, 0% of the Moon is Illuminated
Today
Waning Crescent
Oct 23
New
Oct 30
First Quarter
Nov 6
Full
Nov 14
Last Quarter

Today's Extremes

State Highs State Lows

Community

WunderPhotos

Upload Photos

1,764,247 photos uploaded!

Nearby

Air Quality

  Air Quality AQ Index Pollutant
Yesterday Good
OZONE
Yesterday Good
PM2.5
Current Good
PM2.5
Thursday Good
PM2.5
Friday Good
PM2.5
Saturday Good
PM2.5
Sunday Good
PM2.5
Monday Good
PM2.5

Snow Depth

Station Depth Elevation
Alpine Meadows 0 in 3500 ft
Skookum Creek 0 in 3920 ft
Mount Gardner 0 in 3000 ft
Stevens Pass 0 in 4070 ft
Olallie Meadows 0 in 3700 ft

Earthquake Activity

City Distance Mag. Time & Date
No recent earthquake activity has been reported nearby.
Minimum magnitude displayed is 2.5.

Coastal Water Temperatures

Place Temperature
Port Townsend, WA 53.1 °F
Seattle, WA 55.0 °F
Friday Harbor, WA 51.1 °F
Tacoma, WA 55.0 °F

Nearby Weather Stations